EKRN

Bornholm Airport

Rønne, Denmark
METAR EKRN 181550Z AUTO 21008KT 170V250 9999NDV OVC026/// 02/M03 Q1026
Observed Flight Rules
Dec-18 @ 15:50 UTC (33 minutes ago)
Wind Clouds
210° at 8 knots
  • Overcast at 2,600' AGL
Temperatures Readings
Current 2°C / 36°F
Dewpoint -3°C / 27°F
Humidity 70%
Altimeter 30.3" Hg
Pressure 1026 hPa
Elevation 16
METAR EKRN 181550Z AUTO 21008KT 170V250 9999NDV OVC026/// 02/M03 Q1026
Observed Flight Rules
Dec-18 @ 15:50 UTC
(33 minutes ago)
Wind
210° at 8 knots
Clouds
  • Overcast at 2,600' AGL
Temperature Dewpoint
2°C / 36°F -3°C / 27°F
Humidity Altimeter Pressure
70% 30.3" Hg 1026 hPa